Time,TemperatureF,DewpointF,PressureIn,WindDirection,WindDirectionDegrees,WindSpeedMPH,WindSpeedGustMPH,Humidity,HourlyPrecipIn,Conditions,Clouds,dailyrainin,SolarRadiationWatts/m^2,SoftwareType,DateUTC
2013-03-30 00:01:00,49.0,31.0,30.16,SSW,205,12.0,17.0,50,-99.99,,,-99.99,0.000000,,2013-03-30 06:01:00,
2013-03-30 00:11:00,48.0,31.0,30.16,SSW,209,11.0,17.0,51,-99.99,,,-99.99,0.000000,,2013-03-30 06:11:00,
2013-03-30 00:21:00,48.0,31.0,30.17,SSW,211,11.0,15.0,50,-99.99,,,-99.99,0.000000,,2013-03-30 06:21:00,
2013-03-30 00:32:00,48.0,31.0,30.17,SW,219,10.0,15.0,51,-99.99,,,-99.99,0.000000,,2013-03-30 06:32:00,
2013-03-30 00:41:00,47.0,31.0,30.17,SW,231,8.0,12.0,52,-99.99,,,-99.99,-0.100000,,2013-03-30 06:41:00,
2013-03-30 00:52:00,46.0,31.0,30.17,SW,215,11.0,15.0,54,-99.99,,,-99.99,-0.100000,,2013-03-30 06:52:00,
2013-03-30 01:02:00,46.0,31.0,30.17,SSW,208,12.0,16.0,55,-99.99,,,-99.99,0.000000,,2013-03-30 07:02:00,
2013-03-30 01:11:00,45.0,31.0,30.17,SSW,213,11.0,15.0,58,-99.99,,,-99.99,0.000000,,2013-03-30 07:11:00,
2013-03-30 01:21:00,44.0,31.0,30.17,SSW,208,10.0,14.0,59,-99.99,,,-99.99,0.000000,,2013-03-30 07:21:00,
2013-03-30 01:32:00,44.0,31.0,30.17,SW,222,9.0,12.0,59,-99.99,,,-99.99,-0.200000,,2013-03-30 07:32:00,
2013-03-30 01:41:00,44.0,31.0,30.18,SW,215,9.0,12.0,60,-99.99,,,-99.99,-0.100000,,2013-03-30 07:41:00,
2013-03-30 01:52:00,44.0,31.0,30.18,SW,215,9.0,14.0,61,-99.99,,,-99.99,-0.100000,,2013-03-30 07:52:00,
2013-03-30 02:01:00,43.0,32.0,30.18,SSW,213,11.0,15.0,63,-99.99,,,-99.99,-0.100000,,2013-03-30 08:01:00,
2013-03-30 02:11:00,43.0,32.0,30.18,SW,215,11.0,16.0,65,-99.99,,,-99.99,-0.100000,,2013-03-30 08:11:00,
2013-03-30 02:21:00,43.0,32.0,30.18,SW,218,10.0,14.0,66,-99.99,,,-99.99,0.100000,,2013-03-30 08:21:00,
2013-03-30 02:31:00,42.0,32.0,30.19,SW,220,9.0,13.0,67,-99.99,,,-99.99,-0.200000,,2013-03-30 08:31:00,
2013-03-30 02:42:00,42.0,32.0,30.19,SW,215,9.0,12.0,67,-99.99,,,-99.99,0.000000,,2013-03-30 08:42:00,
2013-03-30 02:52:00,42.0,32.0,30.19,SW,216,8.0,11.0,68,-99.99,,,-99.99,0.100000,,2013-03-30 08:52:00,
2013-03-30 03:01:00,41.0,32.0,30.19,SW,214,10.0,13.0,68,-99.99,,,-99.99,0.100000,,2013-03-30 09:01:00,
2013-03-30 03:11:00,42.0,32.0,30.19,SW,217,10.0,14.0,67,-99.99,,,-99.99,0.000000,,2013-03-30 09:11:00,
2013-03-30 03:22:00,41.0,31.0,30.19,SW,223,9.0,11.0,67,-99.99,,,-99.99,0.000000,,2013-03-30 09:22:00,
2013-03-30 03:33:00,41.0,31.0,30.20,SW,220,8.0,10.0,68,-99.99,,,-99.99,-0.100000,,2013-03-30 09:33:00,
2013-03-30 03:42:00,40.0,31.0,30.20,SW,225,7.0,9.0,69,-99.99,,,-99.99,-0.100000,,2013-03-30 09:42:00,
2013-03-30 03:52:00,40.0,31.0,30.20,SW,217,5.0,7.0,70,-99.99,,,-99.99,0.200000,,2013-03-30 09:52:00,
2013-03-30 04:02:00,39.0,31.0,30.21,SW,217,3.0,4.0,71,-99.99,,,-99.99,0.200000,,2013-03-30 10:02:00,
2013-03-30 04:12:00,39.0,31.0,30.21,SW,221,6.0,8.0,72,-99.99,,,-99.99,0.100000,,2013-03-30 10:12:00,
2013-03-30 04:22:00,39.0,31.0,30.21,SSW,200,5.0,6.0,72,-99.99,,,-99.99,-0.200000,,2013-03-30 10:22:00,
2013-03-30 04:32:00,39.0,31.0,30.21,SW,225,6.0,7.0,72,-99.99,,,-99.99,0.000000,,2013-03-30 10:32:00,
2013-03-30 04:42:00,39.0,31.0,30.21,SW,234,3.0,6.0,71,-99.99,,,-99.99,0.000000,,2013-03-30 10:42:00,
2013-03-30 04:52:00,37.0,30.0,30.21,SW,219,3.0,4.0,73,-99.99,,,-99.99,0.100000,,2013-03-30 10:52:00,
2013-03-30 05:02:00,36.0,29.0,30.21,SSE,165,4.0,5.0,75,-99.99,,,-99.99,-0.100000,,2013-03-30 11:02:00,
2013-03-30 05:11:00,34.0,29.0,30.21,South,180,4.0,5.0,79,-99.99,,,-99.99,-0.200000,,2013-03-30 11:11:00,
2013-03-30 05:22:00,36.0,29.0,30.20,South,177,5.0,6.0,77,-99.99,,,-99.99,0.100000,,2013-03-30 11:22:00,
2013-03-30 05:32:00,34.0,28.0,30.21,South,188,2.0,3.0,77,-99.99,,,-99.99,0.000000,,2013-03-30 11:32:00,
2013-03-30 05:42:00,33.0,28.0,30.21,SSW,196,4.0,5.0,81,-99.99,,,-99.99,-0.100000,,2013-03-30 11:42:00,
2013-03-30 05:52:00,35.0,29.0,30.21,SSW,201,3.0,4.0,80,-99.99,,,-99.99,-0.100000,,2013-03-30 11:52:00,
2013-03-30 06:02:00,35.0,29.0,30.21,SSW,202,4.0,6.0,79,-99.99,,,-99.99,0.000000,,2013-03-30 12:02:00,
2013-03-30 06:11:00,34.0,29.0,30.21,SW,222,3.0,3.0,81,-99.99,,,-99.99,-0.200000,,2013-03-30 12:11:00,
2013-03-30 06:21:00,34.0,29.0,30.21,SSW,203,2.0,2.0,81,-99.99,,,-99.99,0.000000,,2013-03-30 12:21:00,
2013-03-30 06:32:00,34.0,29.0,30.21,SSW,205,2.0,2.0,81,-99.99,,,-99.99,-0.200000,,2013-03-30 12:32:00,
2013-03-30 06:41:00,33.0,29.0,30.21,SW,223,1.0,2.0,82,-99.99,,,-99.99,0.100000,,2013-03-30 12:41:00,
2013-03-30 06:52:00,32.0,28.0,30.21,SSW,203,2.0,2.0,85,-99.99,,,-99.99,0.000000,,2013-03-30 12:52:00,
2013-03-30 07:02:00,33.0,29.0,30.22,WSW,238,1.0,2.0,84,-99.99,,,-99.99,-0.100000,,2013-03-30 13:02:00,
2013-03-30 07:11:00,34.0,29.0,30.22,North,-999,0.0,1.0,83,-99.99,,,-99.99,-0.200000,,2013-03-30 13:11:00,
2013-03-30 07:21:00,32.0,28.0,30.22,WNW,289,0.0,1.0,82,-99.99,,,-99.99,0.500000,,2013-03-30 13:21:00,
2013-03-30 07:32:00,31.0,27.0,30.23,SSW,197,2.0,2.0,86,-99.99,,,-99.99,4.200000,,2013-03-30 13:32:00,
2013-03-30 07:42:00,31.0,27.0,30.23,SSW,200,2.0,3.0,84,-99.99,,,-99.99,10.800000,,2013-03-30 13:42:00,
2013-03-30 07:52:00,31.0,27.0,30.23,South,174,3.0,3.0,85,-99.99,,,-99.99,18.500000,,2013-03-30 13:52:00,
2013-03-30 08:02:00,31.0,26.0,30.23,East,91,2.0,2.0,84,-99.99,,,-99.99,31.900000,,2013-03-30 14:02:00,
2013-03-30 08:11:00,31.0,28.0,30.24,ENE,68,5.0,6.0,86,-99.99,,,-99.99,59.500000,,2013-03-30 14:11:00,
2013-03-30 08:21:00,30.0,27.0,30.24,NE,38,5.0,6.0,87,-99.99,,,-99.99,107.900002,,2013-03-30 14:21:00,
2013-03-30 08:32:00,32.0,28.0,30.25,NE,35,5.0,6.0,85,-99.99,,,-99.99,134.699997,,2013-03-30 14:32:00,
2013-03-30 08:52:00,34.0,29.0,30.25,ESE,103,2.0,3.0,81,-99.99,,,-99.99,115.099998,,2013-03-30 14:52:00,
2013-03-30 09:02:00,35.0,31.0,30.25,ESE,123,3.0,4.0,82,-99.99,,,-99.99,174.899994,,2013-03-30 15:02:00,
2013-03-30 09:11:00,36.0,30.0,30.25,ESE,123,3.0,4.0,80,-99.99,,,-99.99,115.500000,,2013-03-30 15:11:00,
2013-03-30 09:21:00,36.0,31.0,30.26,ENE,70,2.0,2.0,79,-99.99,,,-99.99,140.699997,,2013-03-30 15:21:00,
2013-03-30 09:33:00,37.0,31.0,30.26,North,8,2.0,2.0,80,-99.99,,,-99.99,195.000000,,2013-03-30 15:33:00,
2013-03-30 09:42:00,37.0,32.0,30.26,NNE,24,2.0,3.0,79,-99.99,,,-99.99,157.300003,,2013-03-30 15:42:00,
2013-03-30 09:52:00,38.0,33.0,30.26,NNE,22,2.0,3.0,79,-99.99,,,-99.99,377.100006,,2013-03-30 15:52:00,
2013-03-30 10:02:00,40.0,33.0,30.26,ENE,58,2.0,3.0,75,-99.99,,,-99.99,450.700012,,2013-03-30 16:02:00,
2013-03-30 10:12:00,42.0,33.0,30.26,NE,48,2.0,2.0,71,-99.99,,,-99.99,481.000000,,2013-03-30 16:12:00,
2013-03-30 10:22:00,43.0,33.0,30.25,East,94,1.0,2.0,67,-99.99,,,-99.99,511.500000,,2013-03-30 16:22:00,
2013-03-30 10:42:00,46.0,33.0,30.25,SSE,154,2.0,4.0,60,-99.99,,,-99.99,569.099976,,2013-03-30 16:42:00,
2013-03-30 10:52:00,47.0,34.0,30.26,SW,233,2.0,5.0,58,-99.99,,,-99.99,599.000000,,2013-03-30 16:52:00,
2013-03-30 11:02:00,49.0,34.0,30.25,WSW,238,3.0,6.0,56,-99.99,,,-99.99,627.000000,,2013-03-30 17:02:00,
2013-03-30 11:12:00,49.0,33.0,30.25,North,354,3.0,5.0,55,-99.99,,,-99.99,654.099976,,2013-03-30 17:12:00,
2013-03-30 11:22:00,50.0,34.0,30.25,NNW,330,2.0,4.0,53,-99.99,,,-99.99,680.000000,,2013-03-30 17:22:00,
2013-03-30 11:32:00,51.0,35.0,30.26,WSW,256,2.0,4.0,53,-99.99,,,-99.99,704.900024,,2013-03-30 17:32:00,
2013-03-30 11:42:00,51.0,34.0,30.25,WNW,283,2.0,4.0,52,-99.99,,,-99.99,728.400024,,2013-03-30 17:42:00,
2013-03-30 11:52:00,51.0,34.0,30.26,West,273,2.0,6.0,51,-99.99,,,-99.99,748.900024,,2013-03-30 17:52:00,
2013-03-30 12:02:00,52.0,35.0,30.26,North,4,6.0,10.0,51,-99.99,,,-99.99,765.400024,,2013-03-30 18:02:00,
2013-03-30 12:11:00,52.0,35.0,30.26,NNE,22,6.0,9.0,51,-99.99,,,-99.99,785.700012,,2013-03-30 18:11:00,
2013-03-30 12:21:00,52.0,34.0,30.25,NNE,21,7.0,10.0,50,-99.99,,,-99.99,801.000000,,2013-03-30 18:21:00,
2013-03-30 12:32:00,52.0,34.0,30.25,NNE,21,5.0,9.0,50,-99.99,,,-99.99,815.000000,,2013-03-30 18:32:00,
2013-03-30 12:42:00,53.0,34.0,30.25,East,91,3.0,7.0,48,-99.99,,,-99.99,833.000000,,2013-03-30 18:42:00,
2013-03-30 12:52:00,54.0,33.0,30.25,NE,39,7.0,11.0,46,-99.99,,,-99.99,844.000000,,2013-03-30 18:52:00,
2013-03-30 13:02:00,54.0,32.0,30.25,East,96,4.0,8.0,43,-99.99,,,-99.99,856.000000,,2013-03-30 19:02:00,
2013-03-30 13:11:00,54.0,31.0,30.24,East,94,4.0,5.0,41,-99.99,,,-99.99,874.000000,,2013-03-30 19:11:00,
2013-03-30 13:21:00,55.0,31.0,30.24,NNE,22,5.0,8.0,41,-99.99,,,-99.99,870.000000,,2013-03-30 19:21:00,
2013-03-30 13:32:00,54.0,31.0,30.24,NNE,13,5.0,11.0,41,-99.99,,,-99.99,888.000000,,2013-03-30 19:32:00,
2013-03-30 13:41:00,54.0,30.0,30.25,NNE,19,7.0,10.0,39,-99.99,,,-99.99,741.000000,,2013-03-30 19:41:00,
2013-03-30 13:52:00,55.0,30.0,30.24,SW,232,3.0,5.0,38,-99.99,,,-99.99,895.000000,,2013-03-30 19:52:00,
2013-03-30 14:02:00,56.0,30.0,30.24,ESE,114,3.0,4.0,36,-99.99,,,-99.99,904.000000,,2013-03-30 20:02:00,
2013-03-30 14:11:00,56.0,27.0,30.24,ENE,68,3.0,6.0,33,-99.99,,,-99.99,879.000000,,2013-03-30 20:11:00,
2013-03-30 14:21:00,56.0,29.0,30.24,North,356,8.0,12.0,35,-99.99,,,-99.99,879.000000,,2013-03-30 20:21:00,
2013-03-30 14:32:00,56.0,28.0,30.24,NE,46,6.0,9.0,34,-99.99,,,-99.99,868.000000,,2013-03-30 20:32:00,
2013-03-30 14:42:00,56.0,27.0,30.24,ESE,114,4.0,6.0,32,-99.99,,,-99.99,863.000000,,2013-03-30 20:42:00,
2013-03-30 14:52:00,57.0,29.0,30.23,NW,325,5.0,11.0,34,-99.99,,,-99.99,855.000000,,2013-03-30 20:52:00,
2013-03-30 15:01:00,57.0,30.0,30.23,West,259,5.0,11.0,35,-99.99,,,-99.99,842.000000,,2013-03-30 21:01:00,
2013-03-30 15:11:00,57.0,29.0,30.23,North,8,8.0,12.0,34,-99.99,,,-99.99,827.000000,,2013-03-30 21:11:00,
2013-03-30 15:21:00,57.0,28.0,30.23,WNW,303,5.0,9.0,33,-99.99,,,-99.99,814.000000,,2013-03-30 21:21:00,
2013-03-30 15:32:00,57.0,28.0,30.22,SW,220,4.0,6.0,33,-99.99,,,-99.99,798.700012,,2013-03-30 21:32:00,
2013-03-30 15:42:00,57.0,27.0,30.22,SSW,201,6.0,7.0,32,-99.99,,,-99.99,779.299988,,2013-03-30 21:42:00,
2013-03-30 15:52:00,58.0,28.0,30.22,NW,310,5.0,12.0,32,-99.99,,,-99.99,760.500000,,2013-03-30 21:52:00,
2013-03-30 16:02:00,58.0,28.0,30.22,NW,304,6.0,10.0,31,-99.99,,,-99.99,744.000000,,2013-03-30 22:02:00,
2013-03-30 16:12:00,58.0,27.0,30.21,NE,46,3.0,6.0,29,-99.99,,,-99.99,720.400024,,2013-03-30 22:12:00,
2013-03-30 16:23:00,59.0,28.0,30.21,North,351,7.0,10.0,30,-99.99,,,-99.99,700.299988,,2013-03-30 22:23:00,
2013-03-30 16:32:00,58.0,26.0,30.21,NNE,22,5.0,7.0,29,-99.99,,,-99.99,672.900024,,2013-03-30 22:32:00,
2013-03-30 16:42:00,58.0,27.0,30.20,North,6,7.0,10.0,30,-99.99,,,-99.99,649.599976,,2013-03-30 22:42:00,
2013-03-30 16:52:00,58.0,25.0,30.20,SSW,198,3.0,6.0,28,-99.99,,,-99.99,624.299988,,2013-03-30 22:52:00,
2013-03-30 17:02:00,58.0,27.0,30.19,NNE,18,4.0,9.0,30,-99.99,,,-99.99,594.599976,,2013-03-30 23:02:00,
2013-03-30 17:12:00,58.0,25.0,30.19,East,81,3.0,5.0,27,-99.99,,,-99.99,565.299988,,2013-03-30 23:12:00,
2013-03-30 17:22:00,59.0,26.0,30.19,ENE,57,3.0,6.0,28,-99.99,,,-99.99,536.900024,,2013-03-30 23:22:00,
2013-03-30 17:32:00,59.0,26.0,30.19,North,3,3.0,6.0,28,-99.99,,,-99.99,506.899994,,2013-03-30 23:32:00,
2013-03-30 17:41:00,58.0,26.0,30.19,NNW,341,4.0,6.0,28,-99.99,,,-99.99,474.399994,,2013-03-30 23:41:00,
2013-03-30 17:52:00,58.0,26.0,30.18,WSW,257,3.0,5.0,28,-99.99,,,-99.99,441.299988,,2013-03-30 23:52:00,
2013-03-30 18:02:00,60.0,26.0,30.18,ESE,109,4.0,9.0,27,-99.99,,,-99.99,407.500000,,2013-03-31 00:02:00,
2013-03-30 18:11:00,59.0,26.0,30.18,NNE,22,4.0,7.0,28,-99.99,,,-99.99,373.399994,,2013-03-31 00:11:00,
2013-03-30 18:22:00,60.0,26.0,30.17,ESE,110,4.0,9.0,27,-99.99,,,-99.99,341.100006,,2013-03-31 00:22:00,
2013-03-30 18:32:00,59.0,25.0,30.17,East,99,4.0,5.0,26,-99.99,,,-99.99,307.299988,,2013-03-31 00:32:00,
2013-03-30 18:41:00,59.0,26.0,30.17,ENE,64,2.0,5.0,27,-99.99,,,-99.99,270.700012,,2013-03-31 00:41:00,
2013-03-30 18:52:00,59.0,26.0,30.17,ENE,74,4.0,6.0,27,-99.99,,,-99.99,237.300003,,2013-03-31 00:52:00,
2013-03-30 19:01:00,59.0,25.0,30.17,ESE,108,5.0,8.0,27,-99.99,,,-99.99,202.800003,,2013-03-31 01:01:00,
2013-03-30 19:11:00,59.0,26.0,30.17,East,100,6.0,8.0,28,-99.99,,,-99.99,170.199997,,2013-03-31 01:11:00,
2013-03-30 19:21:00,59.0,25.0,30.17,ESE,112,4.0,6.0,27,-99.99,,,-99.99,137.399994,,2013-03-31 01:21:00,
2013-03-30 19:32:00,59.0,25.0,30.17,ESE,115,4.0,5.0,27,-99.99,,,-99.99,100.300003,,2013-03-31 01:32:00,
2013-03-30 19:41:00,58.0,25.0,30.17,East,88,4.0,4.0,28,-99.99,,,-99.99,58.799999,,2013-03-31 01:41:00,
2013-03-30 19:52:00,57.0,27.0,30.17,ESE,115,3.0,5.0,32,-99.99,,,-99.99,20.100000,,2013-03-31 01:52:00,
2013-03-30 20:02:00,56.0,25.0,30.17,ESE,116,4.0,5.0,30,-99.99,,,-99.99,12.000000,,2013-03-31 02:02:00,
2013-03-30 20:11:00,52.0,27.0,30.16,ESE,111,3.0,4.0,37,-99.99,,,-99.99,5.900000,,2013-03-31 02:11:00,
2013-03-30 20:21:00,52.0,27.0,30.16,SE,141,3.0,4.0,37,-99.99,,,-99.99,1.800000,,2013-03-31 02:21:00,
2013-03-30 20:32:00,53.0,27.0,30.16,SE,129,5.0,6.0,36,-99.99,,,-99.99,0.300000,,2013-03-31 02:32:00,
2013-03-30 20:42:00,49.0,28.0,30.16,SE,132,3.0,4.0,43,-99.99,,,-99.99,-0.100000,,2013-03-31 02:42:00,
2013-03-30 20:51:00,49.0,28.0,30.17,SSE,160,3.0,4.0,44,-99.99,,,-99.99,-0.100000,,2013-03-31 02:51:00,
2013-03-30 21:02:00,47.0,29.0,30.17,SE,145,3.0,4.0,49,-99.99,,,-99.99,-0.100000,,2013-03-31 03:02:00,
2013-03-30 21:11:00,46.0,28.0,30.16,SE,139,3.0,4.0,50,-99.99,,,-99.99,0.100000,,2013-03-31 03:11:00,
2013-03-30 21:21:00,46.0,29.0,30.17,SE,137,7.0,8.0,51,-99.99,,,-99.99,0.100000,,2013-03-31 03:21:00,
2013-03-30 21:32:00,46.0,29.0,30.17,SE,131,6.0,6.0,51,-99.99,,,-99.99,0.300000,,2013-03-31 03:32:00,
2013-03-30 21:42:00,44.0,28.0,30.17,SE,135,5.0,6.0,53,-99.99,,,-99.99,0.000000,,2013-03-31 03:42:00,
2013-03-30 21:53:00,45.0,27.0,30.17,ESE,115,7.0,9.0,50,-99.99,,,-99.99,-0.100000,,2013-03-31 03:53:00,
2013-03-30 22:02:00,46.0,-99.9,30.17,ESE,120,7.0,9.0,45,-99.99,,,-99.99,-0.100000,,2013-03-31 04:02:00,
2013-03-30 22:12:00,46.0,26.0,30.17,ESE,122,8.0,12.0,45,-99.99,,,-99.99,-0.200000,,2013-03-31 04:12:00,
2013-03-30 22:22:00,42.0,27.0,30.17,SE,124,5.0,6.0,54,-99.99,,,-99.99,0.000000,,2013-03-31 04:22:00,
2013-03-30 22:32:00,43.0,26.0,30.17,ESE,120,5.0,6.0,49,-99.99,,,-99.99,0.400000,,2013-03-31 04:32:00,
2013-03-30 22:42:00,43.0,26.0,30.17,ESE,105,6.0,7.0,50,-99.99,,,-99.99,-0.400000,,2013-03-31 04:42:00,
2013-03-30 22:52:00,44.0,25.0,30.17,ESE,116,5.0,7.0,47,-99.99,,,-99.99,0.000000,,2013-03-31 04:52:00,
2013-03-30 23:02:00,43.0,25.0,30.17,ESE,104,5.0,6.0,48,-99.99,,,-99.99,-0.100000,,2013-03-31 05:02:00,
2013-03-30 23:12:00,44.0,25.0,30.17,ESE,122,6.0,8.0,48,-99.99,,,-99.99,-0.200000,,2013-03-31 05:12:00,
2013-03-30 23:22:00,45.0,25.0,30.17,SE,129,7.0,9.0,45,-99.99,,,-99.99,0.000000,,2013-03-31 05:22:00,
2013-03-30 23:32:00,44.0,25.0,30.17,ESE,111,7.0,11.0,46,-99.99,,,-99.99,0.100000,,2013-03-31 05:32:00,
2013-03-30 23:41:00,45.0,25.0,30.17,SE,135,8.0,10.0,45,-99.99,,,-99.99,-0.100000,,2013-03-31 05:41:00,
2013-03-30 23:52:00,45.0,25.0,30.17,SE,131,6.0,9.0,44,-99.99,,,-99.99,-0.100000,,2013-03-31 05:52:00,